Time;durP1;ratioP1;P1;durP2;ratioP2;P2;SDS_P1;SDS_P2;PMS_P1;PMS_P2;Temp;Humidity;BMP_temperature;BMP_pressure;BME280_temperature;BME280_humidity;BME280_pressure;Samples;Min_cycle;Max_cycle;Signal;HPM_P1;HPM_P2
2021/11/05 00:01:44;;;;;;;23.23;13.20;;;8.40;79.10;;;;;;4981207;28;99298;-92
2021/11/05 00:04:11;;;;;;;23.45;12.90;;;8.30;79.10;;;;;;4981264;28;90288;-92
2021/11/05 00:06:38;;;;;;;20.13;11.50;;;8.30;79.10;;;;;;4980351;28;92188;-92
2021/11/05 00:09:06;;;;;;;22.00;12.73;;;8.30;79.10;;;;;;4981510;28;91722;-92
2021/11/05 00:11:33;;;;;;;25.55;11.82;;;8.20;79.10;;;;;;4981042;28;91359;-93
2021/11/05 00:14:00;;;;;;;18.85;11.50;;;8.20;79.10;;;;;;4948870;28;90857;-93
2021/11/05 00:16:27;;;;;;;19.42;12.00;;;8.20;79.20;;;;;;4948879;28;91008;-92
2021/11/05 00:18:54;;;;;;;20.70;12.00;;;8.10;79.20;;;;;;4980597;28;91246;-92
2021/11/05 00:21:22;;;;;;;19.45;11.65;;;8.10;79.30;;;;;;4980845;28;98976;-95
2021/11/05 00:23:49;;;;;;;20.95;11.75;;;8.10;79.30;;;;;;4980231;28;90384;-93
2021/11/05 00:26:16;;;;;;;25.60;12.48;;;8.00;79.20;;;;;;4980527;28;90393;-92
2021/11/05 00:28:43;;;;;;;22.77;12.23;;;8.10;79.30;;;;;;4948653;28;92127;-93
2021/11/05 00:31:11;;;;;;;22.52;11.13;;;8.00;79.20;;;;;;4980549;28;90619;-92
2021/11/05 00:33:37;;;;;;;25.10;11.60;;;8.00;79.40;;;;;;4980275;28;90421;-92
2021/11/05 00:36:11;;;;;;;23.08;10.90;;;8.00;79.50;;;;;;4964833;28;91325;-93
2021/11/05 00:38:39;;;;;;;24.25;12.90;;;7.90;79.60;;;;;;4981494;28;91679;-93
2021/11/05 00:41:08;;;;;;;22.77;12.40;;;7.90;79.70;;;;;;4980886;28;95236;-92
2021/11/05 00:43:35;;;;;;;25.15;10.95;;;7.90;79.70;;;;;;4981059;28;89619;-93
2021/11/05 00:46:03;;;;;;;20.85;11.55;;;7.90;79.30;;;;;;4997645;28;90062;-93
2021/11/05 00:48:31;;;;;;;22.45;12.13;;;7.90;79.80;;;;;;4981077;28;91645;-92
2021/11/05 00:50:58;;;;;;;22.55;12.20;;;7.90;80.10;;;;;;4964598;28;91612;-92
2021/11/05 00:53:26;;;;;;;22.70;11.93;;;7.80;80.00;;;;;;4980661;28;90312;-94
2021/11/05 00:55:54;;;;;;;22.00;11.90;;;7.80;80.00;;;;;;4947770;28;91421;-92
2021/11/05 00:58:21;;;;;;;20.10;10.93;;;7.80;80.00;;;;;;4980441;28;91629;-93
2021/11/05 01:00:48;;;;;;;22.73;12.10;;;7.80;80.00;;;;;;4963830;28;95475;-93
2021/11/05 01:03:15;;;;;;;22.48;11.32;;;7.80;80.10;;;;;;4980222;28;90211;-93
2021/11/05 01:05:42;;;;;;;20.70;11.68;;;7.80;80.10;;;;;;4963984;28;90099;-94
2021/11/05 01:08:09;;;;;;;21.98;12.82;;;7.80;80.10;;;;;;4979249;28;92119;-93
2021/11/05 01:10:37;;;;;;;20.85;11.88;;;7.70;80.10;;;;;;4963306;28;90662;-92
2021/11/05 01:13:06;;;;;;;22.45;12.13;;;7.70;80.10;;;;;;4980606;28;88316;-93
2021/11/05 01:15:34;;;;;;;21.80;11.50;;;7.70;80.20;;;;;;4979845;28;90371;-92
2021/11/05 01:18:02;;;;;;;21.58;11.68;;;7.80;80.20;;;;;;4963297;28;91840;-93
2021/11/05 01:20:30;;;;;;;20.38;11.15;;;7.80;80.20;;;;;;4964056;28;91311;-93
2021/11/05 01:22:57;;;;;;;17.92;11.23;;;7.80;80.30;;;;;;4980317;28;90473;-92
2021/11/05 01:25:24;;;;;;;17.80;11.00;;;7.80;80.30;;;;;;4963691;28;91087;-93
2021/11/05 01:45:43;;;;;;;19.50;9.73;;;7.80;80.50;;;;;;4977289;28;88629;-93
2021/11/05 01:48:11;;;;;;;17.77;9.75;;;7.80;80.50;;;;;;4980192;28;91406;-92
2021/11/05 01:50:38;;;;;;;16.73;9.85;;;7.70;80.50;;;;;;4964294;28;90576;-93
2021/11/05 01:53:09;;;;;;;19.90;9.82;;;7.80;80.60;;;;;;4980655;28;90791;-92
2021/11/05 01:55:37;;;;;;;22.00;9.80;;;7.70;80.80;;;;;;4947344;28;108195;-93
2021/11/05 01:58:04;;;;;;;18.65;9.85;;;7.80;80.80;;;;;;4980727;28;88570;-92
2021/11/05 02:00:32;;;;;;;18.98;8.93;;;7.80;80.80;;;;;;4980803;28;89286;-93
2021/11/05 02:03:00;;;;;;;18.30;9.07;;;7.80;80.90;;;;;;4947222;28;91302;-94
2021/11/05 02:05:27;;;;;;;16.10;9.35;;;7.80;80.90;;;;;;4947260;28;89862;-93
2021/11/05 02:07:56;;;;;;;19.55;9.73;;;7.70;80.90;;;;;;4947633;28;89190;-92
2021/11/05 02:10:27;;;;;;;16.45;9.50;;;7.80;81.00;;;;;;4964695;28;89776;-92
2021/11/05 02:12:56;;;;;;;18.85;9.68;;;7.70;81.10;;;;;;4980372;28;91469;-92
2021/11/05 02:15:24;;;;;;;17.73;8.95;;;7.70;81.20;;;;;;4979970;28;91326;-92
2021/11/05 02:17:52;;;;;;;21.05;9.07;;;7.70;81.10;;;;;;4997467;28;88692;-93
2021/11/05 02:20:23;;;;;;;19.17;9.02;;;7.70;81.30;;;;;;4979218;28;90216;-93
2021/11/05 02:22:52;;;;;;;20.92;8.75;;;7.70;81.40;;;;;;4979182;28;91230;-93
2021/11/05 02:25:20;;;;;;;17.08;8.98;;;7.70;81.30;;;;;;4962666;28;90957;-93
2021/11/05 02:27:49;;;;;;;20.90;9.25;;;7.70;81.90;;;;;;4963118;28;89138;-93
2021/11/05 02:30:17;;;;;;;19.88;8.43;;;7.70;81.50;;;;;;4962847;28;89075;-93
2021/11/05 02:32:45;;;;;;;21.35;9.38;;;7.70;81.60;;;;;;4978874;28;91150;-93
2021/11/05 02:35:14;;;;;;;20.38;8.25;;;7.70;81.50;;;;;;4979275;28;90846;-92
2021/11/05 02:37:42;;;;;;;20.73;9.27;;;7.70;81.70;;;;;;4978950;28;89630;-92
2021/11/05 02:40:09;;;;;;;18.15;8.93;;;7.70;81.60;;;;;;4962625;28;91573;-92
2021/11/05 02:42:37;;;;;;;15.82;8.25;;;7.70;81.70;;;;;;4978582;28;92372;-93
2021/11/05 02:45:05;;;;;;;17.02;8.63;;;7.60;81.70;;;;;;4979119;28;91911;-93
2021/11/05 02:47:32;;;;;;;16.48;7.90;;;7.60;81.60;;;;;;4963061;28;89249;-92
2021/11/05 02:50:12;;;;;;;15.40;7.72;;;7.60;81.60;;;;;;4978863;28;90660;-92
2021/11/05 02:52:40;;;;;;;23.80;8.57;;;7.60;81.70;;;;;;4979613;28;91808;-93
2021/11/05 02:55:08;;;;;;;11.18;6.57;;;7.60;81.60;;;;;;4978653;28;91824;-93
2021/11/05 02:57:36;;;;;;;17.75;7.15;;;7.60;81.60;;;;;;4950019;28;88057;-92
2021/11/05 03:00:06;;;;;;;15.38;7.57;;;7.60;81.70;;;;;;4967086;28;90180;-93
2021/11/05 03:02:33;;;;;;;12.60;7.13;;;7.60;81.80;;;;;;4982983;28;91079;-93
2021/11/05 03:05:00;;;;;;;14.23;6.93;;;7.60;81.70;;;;;;4950183;28;91329;-92
2021/11/05 03:07:27;;;;;;;14.18;6.57;;;7.60;81.70;;;;;;4981380;28;106267;-92
2021/11/05 03:09:54;;;;;;;13.23;6.63;;;7.60;81.70;;;;;;4983106;28;90529;-92
2021/11/05 03:12:21;;;;;;;14.02;6.55;;;7.60;81.70;;;;;;4966745;28;90149;-93
2021/11/05 03:14:48;;;;;;;11.07;6.07;;;7.60;81.70;;;;;;4949923;28;91353;-93
2021/11/05 03:17:16;;;;;;;11.68;6.60;;;7.60;81.70;;;;;;4966620;28;89664;-92
2021/11/05 03:19:43;;;;;;;11.43;6.07;;;7.60;81.70;;;;;;4966279;28;90593;-92
2021/11/05 03:22:10;;;;;;;16.08;6.18;;;7.60;81.70;;;;;;4950341;28;91909;-92
2021/11/05 03:24:37;;;;;;;13.40;5.70;;;7.60;81.80;;;;;;4983128;28;88952;-93
2021/11/05 03:27:04;;;;;;;13.57;5.57;;;7.50;81.70;;;;;;4966561;28;89412;-92
2021/11/05 03:29:32;;;;;;;10.70;5.22;;;7.50;81.80;;;;;;4982800;28;90352;-93
2021/11/05 03:31:59;;;;;;;9.25;5.03;;;7.50;81.90;;;;;;4982158;28;92607;-92
2021/11/05 03:34:26;;;;;;;9.63;5.20;;;7.50;82.00;;;;;;4950113;28;89334;-92
2021/11/05 03:36:53;;;;;;;12.48;4.82;;;7.50;82.50;;;;;;4965700;28;89277;-93
2021/11/05 03:39:20;;;;;;;8.18;4.50;;;7.50;81.90;;;;;;4982145;28;90156;-93
2021/11/05 03:41:47;;;;;;;11.43;4.70;;;7.50;81.90;;;;;;4982169;28;104378;-93
2021/11/05 03:44:15;;;;;;;15.88;4.85;;;7.50;82.00;;;;;;4982550;28;89902;-92
2021/11/05 03:46:42;;;;;;;11.82;4.90;;;7.50;82.10;;;;;;4982505;28;88847;-93
2021/11/05 03:49:09;;;;;;;11.20;5.03;;;7.50;82.10;;;;;;4950192;28;90916;-92
2021/11/05 03:51:36;;;;;;;11.48;4.57;;;7.50;82.10;;;;;;4949824;28;90080;-92
2021/11/05 03:54:04;;;;;;;11.02;4.22;;;7.50;82.10;;;;;;4965729;28;91327;-92
2021/11/05 03:56:32;;;;;;;9.07;4.28;;;7.40;82.00;;;;;;4965524;28;88680;-92
2021/11/05 04:13:29;;;;;;;7.07;3.00;;;7.40;82.20;;;;;;4955024;28;88036;-92
2021/11/05 04:15:56;;;;;;;9.95;3.10;;;7.40;82.50;;;;;;4977411;28;89298;-92
2021/11/05 04:18:23;;;;;;;6.97;3.28;;;7.40;82.50;;;;;;4929691;28;91287;-93
2021/11/05 04:20:50;;;;;;;5.82;3.03;;;7.50;82.70;;;;;;4962163;28;90117;-92
2021/11/05 04:23:17;;;;;;;7.57;3.03;;;7.50;82.90;;;;;;4962021;28;88426;-93
2021/11/05 04:25:46;;;;;;;6.68;2.70;;;7.60;82.80;;;;;;4962301;28;89843;-92
2021/11/05 04:28:14;;;;;;;10.98;2.80;;;7.60;82.90;;;;;;4961407;28;91201;-93
2021/11/05 04:30:42;;;;;;;8.95;2.55;;;7.70;82.90;;;;;;4945724;28;92376;-93
2021/11/05 04:33:10;;;;;;;7.32;2.58;;;7.70;83.40;;;;;;4945781;28;87940;-92
2021/11/05 04:45:17;;;;;;;4.55;2.10;;;7.80;82.80;;;;;;4960191;28;87957;-93
2021/11/05 04:47:45;;;;;;;7.25;2.58;;;7.90;82.70;;;;;;4961666;28;89456;-92
2021/11/05 04:50:12;;;;;;;5.55;2.17;;;7.90;82.90;;;;;;4945784;28;90451;-93
2021/11/05 04:52:39;;;;;;;6.15;2.33;;;7.90;82.90;;;;;;4945460;28;90007;-92
2021/11/05 04:55:07;;;;;;;9.18;2.38;;;8.00;83.20;;;;;;4960427;28;91375;-93
2021/11/05 04:57:34;;;;;;;7.38;2.25;;;8.00;83.10;;;;;;4961049;28;89620;-93
2021/11/05 05:00:03;;;;;;;13.05;2.78;;;8.00;83.30;;;;;;4945131;28;91064;-93
2021/11/05 05:02:31;;;;;;;8.38;2.40;;;8.10;83.50;;;;;;4977625;28;91939;-92
2021/11/05 05:04:58;;;;;;;6.63;1.90;;;8.10;83.50;;;;;;4961350;28;92641;-92
2021/11/05 05:07:25;;;;;;;5.78;1.80;;;8.20;83.80;;;;;;4945362;28;88724;-92
2021/11/05 05:09:52;;;;;;;6.72;1.88;;;8.30;84.20;;;;;;4945370;28;89402;-92
2021/11/05 05:12:19;;;;;;;5.88;2.22;;;8.30;83.90;;;;;;4959532;28;94692;-93
2021/11/05 05:14:46;;;;;;;6.57;1.85;;;8.40;84.20;;;;;;4969436;28;95675;-93
2021/11/05 05:17:13;;;;;;;6.55;2.03;;;8.40;83.80;;;;;;4946559;28;92450;-93
2021/11/05 05:19:40;;;;;;;6.05;2.10;;;8.40;83.60;;;;;;4978649;28;92334;-92
2021/11/05 05:22:08;;;;;;;5.35;1.95;;;8.40;83.90;;;;;;4977051;28;98493;-92
2021/11/05 05:24:36;;;;;;;7.22;2.10;;;8.40;84.30;;;;;;4946109;28;98205;-93
2021/11/05 05:27:04;;;;;;;3.95;2.10;;;8.40;84.00;;;;;;4978152;28;92325;-93
2021/11/05 05:29:31;;;;;;;14.35;2.47;;;8.40;84.00;;;;;;4978542;28;92541;-93
2021/11/05 05:31:58;;;;;;;4.97;2.05;;;8.40;83.70;;;;;;4945758;28;94991;-92
2021/11/05 05:34:25;;;;;;;8.07;2.65;;;8.40;83.60;;;;;;4978278;28;95690;-95
2021/11/05 05:36:52;;;;;;;11.45;2.30;;;8.40;83.40;;;;;;4944990;28;92307;-93
2021/11/05 05:39:19;;;;;;;10.18;2.65;;;8.30;83.30;;;;;;4962364;28;91750;-94
2021/11/05 05:41:46;;;;;;;11.77;2.03;;;8.30;83.30;;;;;;4962057;28;95494;-92
2021/11/05 05:44:13;;;;;;;7.90;2.97;;;8.20;83.30;;;;;;4945864;28;93225;-93
2021/11/05 05:46:40;;;;;;;7.72;3.03;;;8.20;83.20;;;;;;4960803;28;99572;-93
2021/11/05 05:49:07;;;;;;;6.75;2.78;;;8.20;83.90;;;;;;4978214;28;92565;-93
2021/11/05 05:51:38;;;;;;;6.72;2.70;;;8.20;83.10;;;;;;4945826;28;96067;-92
2021/11/05 05:54:05;;;;;;;6.10;2.63;;;8.20;83.00;;;;;;4961601;28;95510;-92
2021/11/05 05:56:32;;;;;;;10.70;2.55;;;8.20;83.00;;;;;;4978238;28;92364;-93
2021/11/05 05:58:59;;;;;;;9.35;2.47;;;8.20;82.90;;;;;;4961843;28;92516;-92
2021/11/05 06:01:26;;;;;;;7.85;2.95;;;8.20;83.10;;;;;;4977119;28;112886;-93
2021/11/05 06:03:53;;;;;;;7.05;2.67;;;8.20;82.80;;;;;;4979751;28;94434;-92
2021/11/05 06:06:20;;;;;;;11.45;2.90;;;8.20;82.90;;;;;;4961797;28;92231;-92
2021/11/05 06:08:47;;;;;;;9.95;3.70;;;8.20;82.90;;;;;;4945901;28;92498;-93
2021/11/05 06:11:14;;;;;;;8.43;2.42;;;8.20;82.80;;;;;;4960105;28;98614;-92
2021/11/05 06:13:41;;;;;;;7.13;2.58;;;8.20;82.80;;;;;;4961126;28;97110;-92
2021/11/05 06:16:09;;;;;;;8.10;2.85;;;8.20;83.00;;;;;;4977711;28;92236;-92
2021/11/05 06:18:37;;;;;;;8.50;2.40;;;8.20;82.90;;;;;;4960842;28;92681;-93
2021/11/05 06:21:07;;;;;;;5.07;1.95;;;8.20;82.80;;;;;;4961280;28;96487;-93
2021/11/05 06:23:34;;;;;;;8.25;2.67;;;8.20;82.90;;;;;;4977525;28;95259;-93
2021/11/05 06:26:01;;;;;;;9.68;2.63;;;8.20;82.90;;;;;;4961564;28;92623;-93
2021/11/05 06:28:28;;;;;;;11.30;2.67;;;8.20;83.10;;;;;;4945397;28;91847;-92
2021/11/05 06:30:55;;;;;;;8.05;2.25;;;8.20;82.90;;;;;;4944243;28;95778;-93
2021/11/05 06:33:22;;;;;;;7.90;2.30;;;8.20;82.90;;;;;;4945086;28;95473;-93
2021/11/05 06:35:49;;;;;;;9.65;2.70;;;8.20;83.10;;;;;;4943982;28;94575;-92
2021/11/05 06:38:17;;;;;;;8.02;2.38;;;8.20;83.00;;;;;;4961510;28;92540;-92
2021/11/05 06:40:44;;;;;;;7.47;2.78;;;8.20;83.20;;;;;;4977062;28;96073;-92
2021/11/05 06:43:11;;;;;;;10.00;2.60;;;8.30;83.20;;;;;;4960748;28;95478;-91
2021/11/05 06:45:38;;;;;;;10.43;2.80;;;8.30;83.20;;;;;;4977166;28;92346;-91
2021/11/05 06:48:05;;;;;;;8.38;2.60;;;8.40;83.20;;;;;;4960679;28;93267;-92
2021/11/05 06:50:32;;;;;;;7.05;2.42;;;8.40;83.10;;;;;;4977061;28;95891;-94
2021/11/05 06:53:01;;;;;;;9.63;2.95;;;8.50;83.10;;;;;;4977103;28;95498;-92
2021/11/05 06:55:28;;;;;;;10.07;2.78;;;8.60;83.10;;;;;;4944328;28;92339;-92
2021/11/05 06:57:55;;;;;;;5.95;1.98;;;8.60;83.00;;;;;;4961422;28;92358;-92
2021/11/05 07:00:23;;;;;;;4.55;2.05;;;8.70;82.90;;;;;;4974427;28;98310;-92
2021/11/05 07:02:49;;;;;;;8.55;2.05;;;8.80;82.90;;;;;;4959770;28;97228;-92
2021/11/05 07:05:17;;;;;;;3.70;1.98;;;8.80;82.90;;;;;;4960751;28;92442;-91
2021/11/05 07:07:45;;;;;;;32.90;3.53;;;8.90;82.80;;;;;;4978030;28;98977;-92
2021/11/05 07:10:13;;;;;;;7.15;3.13;;;9.00;82.70;;;;;;4977738;28;96391;-92
2021/11/05 07:12:40;;;;;;;9.18;2.83;;;9.00;82.60;;;;;;4976738;28;95449;-91
2021/11/05 07:15:11;;;;;;;8.13;2.42;;;9.10;82.60;;;;;;4976367;28;92515;-92
2021/11/05 07:17:40;;;;;;;6.70;2.10;;;9.10;82.50;;;;;;4977000;28;91761;-92
2021/11/05 07:20:08;;;;;;;4.85;1.75;;;9.20;82.50;;;;;;4976393;28;95496;-93
2021/11/05 07:22:37;;;;;;;4.30;1.65;;;9.30;82.50;;;;;;4960331;28;95563;-92
2021/11/05 07:25:05;;;;;;;8.30;2.30;;;9.40;82.40;;;;;;4975858;28;94906;-92
2021/11/05 07:27:33;;;;;;;4.80;1.92;;;9.50;82.40;;;;;;4944469;28;92550;-92
2021/11/05 07:30:04;;;;;;;10.90;2.00;;;9.50;82.10;;;;;;4960794;28;96180;-91
2021/11/05 07:32:32;;;;;;;8.25;1.83;;;9.50;82.10;;;;;;4959386;28;95689;-93
2021/11/05 07:34:59;;;;;;;5.93;2.50;;;9.60;82.00;;;;;;4976651;28;92262;-91
2021/11/05 07:37:26;;;;;;;8.70;1.88;;;9.60;81.90;;;;;;4976799;28;92513;-92
2021/11/05 07:39:55;;;;;;;5.95;1.58;;;9.60;81.80;;;;;;4960703;28;95339;-92
2021/11/05 07:42:22;;;;;;;5.78;3.25;;;9.60;81.80;;;;;;4960728;28;95529;-92
2021/11/05 07:44:49;;;;;;;5.65;1.88;;;9.60;81.90;;;;;;4963425;28;92258;-91
2021/11/05 07:47:22;;;;;;;6.78;2.42;;;9.60;82.20;;;;;;4946583;28;95345;-92
2021/11/05 07:49:52;;;;;;;4.93;1.90;;;9.70;82.20;;;;;;4962885;28;98661;-92
2021/11/05 07:52:20;;;;;;;6.85;1.92;;;9.70;82.20;;;;;;4979441;28;96932;-92
2021/11/05 07:54:49;;;;;;;10.73;2.15;;;9.80;82.20;;;;;;4947678;28;92361;-92
2021/11/05 07:57:19;;;;;;;4.65;2.00;;;9.80;82.20;;;;;;4979854;28;92451;-92
2021/11/05 07:59:46;;;;;;;6.22;1.98;;;9.90;82.20;;;;;;4947250;28;95489;-92
2021/11/05 08:02:14;;;;;;;4.07;2.42;;;9.90;82.60;;;;;;4979145;28;94850;-92
2021/11/05 08:04:41;;;;;;;4.45;2.00;;;10.00;81.70;;;;;;4979447;28;92406;-92
2021/11/05 08:07:09;;;;;;;8.30;2.10;;;10.10;81.60;;;;;;4963616;28;91853;-93
2021/11/05 08:09:36;;;;;;;5.93;1.90;;;10.10;81.40;;;;;;4979882;28;94590;-92
2021/11/05 08:12:03;;;;;;;4.55;1.92;;;10.20;81.40;;;;;;4978697;28;108647;-92
2021/11/05 08:14:30;;;;;;;5.22;2.00;;;10.30;81.20;;;;;;4962144;28;94599;-92
2021/11/05 08:16:58;;;;;;;6.90;1.83;;;10.40;81.10;;;;;;4979106;28;92585;-91
2021/11/05 08:19:25;;;;;;;3.40;1.70;;;10.40;80.90;;;;;;4962859;28;96061;-92
2021/11/05 08:21:52;;;;;;;5.97;1.60;;;10.50;80.80;;;;;;4963321;28;95874;-92
2021/11/05 08:24:22;;;;;;;8.32;1.52;;;10.60;80.60;;;;;;4946794;28;92313;-92
2021/11/05 08:26:50;;;;;;;5.57;2.50;;;10.60;80.40;;;;;;4963388;28;92273;-92
2021/11/05 08:29:17;;;;;;;3.45;1.77;;;10.70;80.40;;;;;;4979113;28;108147;-92
2021/11/05 08:31:45;;;;;;;4.57;1.70;;;10.80;80.50;;;;;;4962681;28;94206;-92
2021/11/05 08:34:14;;;;;;;3.80;2.15;;;10.90;80.50;;;;;;4962479;28;92361;-92
2021/11/05 08:36:41;;;;;;;5.78;2.20;;;11.10;80.70;;;;;;4978751;28;92398;-92
2021/11/05 08:39:08;;;;;;;5.53;2.38;;;11.30;80.60;;;;;;4977626;28;98380;-92
2021/11/05 08:41:36;;;;;;;4.90;2.33;;;11.50;80.50;;;;;;4978583;28;97667;-92
2021/11/05 08:44:03;;;;;;;5.13;1.85;;;11.60;80.10;;;;;;4978958;28;92429;-92
2021/11/05 08:46:31;;;;;;;5.18;1.95;;;11.80;79.70;;;;;;4962528;28;92494;-92
2021/11/05 08:49:10;;;;;;;6.65;1.95;;;11.90;79.30;;;;;;4978409;28;95738;-92
2021/11/05 08:51:41;;;;;;;4.78;1.80;;;12.10;79.00;;;;;;4978762;28;95394;-92
2021/11/05 08:54:09;;;;;;;5.28;2.75;;;12.20;78.70;;;;;;4980254;28;92183;-92
2021/11/05 08:56:37;;;;;;;5.68;1.60;;;12.30;78.30;;;;;;4962825;28;91814;-92
2021/11/05 08:59:10;;;;;;;7.43;2.65;;;12.40;78.00;;;;;;4978726;28;96153;-93
2021/11/05 09:01:37;;;;;;;7.90;2.00;;;12.50;77.70;;;;;;4978415;28;95463;-92
2021/11/05 09:04:04;;;;;;;5.30;1.50;;;12.60;77.40;;;;;;4961241;28;94793;-93
2021/11/05 09:06:32;;;;;;;4.95;1.55;;;12.70;77.00;;;;;;4978745;28;92419;-92
2021/11/05 09:09:00;;;;;;;2.70;1.25;;;12.70;76.60;;;;;;4978174;28;95522;-92
2021/11/05 09:11:32;;;;;;;5.05;1.33;;;12.80;76.50;;;;;;4946331;28;95756;-93
2021/11/05 09:14:03;;;;;;;5.00;2.13;;;12.90;76.50;;;;;;4994775;28;92499;-92
2021/11/05 09:16:40;;;;;;;4.20;1.52;;;13.00;76.40;;;;;;4978206;28;92374;-92
2021/11/05 09:19:08;;;;;;;6.05;1.35;;;13.10;76.20;;;;;;4962359;28;94212;-92
2021/11/05 09:21:36;;;;;;;3.67;1.52;;;13.10;75.60;;;;;;4977703;28;107582;-93
2021/11/05 09:24:04;;;;;;;3.78;1.17;;;13.10;75.60;;;;;;4978368;28;92205;-95
2021/11/05 09:26:32;;;;;;;3.58;1.50;;;13.20;75.50;;;;;;4977922;28;92346;-93
2021/11/05 09:29:01;;;;;;;5.15;1.35;;;13.30;75.40;;;;;;4961350;28;97119;-94
2021/11/05 09:31:29;;;;;;;5.57;1.80;;;13.40;75.30;;;;;;4978261;28;98161;-92
2021/11/05 09:33:55;;;;;;;4.55;1.45;;;13.40;74.90;;;;;;4977977;28;92321;-93
2021/11/05 09:36:23;;;;;;;5.35;3.30;;;13.40;75.00;;;;;;4977997;28;92546;-92
2021/11/05 09:38:50;;;;;;;8.07;1.80;;;13.40;74.60;;;;;;4977653;28;95782;-92
2021/11/05 09:41:17;;;;;;;9.75;2.67;;;13.40;74.80;;;;;;4961223;28;95518;-92
2021/11/05 09:43:45;;;;;;;5.72;1.80;;;13.40;74.50;;;;;;4978128;28;92365;-93
2021/11/05 09:46:12;;;;;;;5.43;1.58;;;13.40;74.60;;;;;;4978860;28;93976;-93
2021/11/05 09:48:39;;;;;;;3.38;1.60;;;13.40;74.50;;;;;;4961393;28;95024;-92
2021/11/05 09:51:08;;;;;;;3.83;1.55;;;13.40;74.40;;;;;;4961863;28;95584;-93
2021/11/05 09:53:37;;;;;;;3.47;1.60;;;13.50;74.30;;;;;;4976927;28;94780;-93
2021/11/05 09:56:10;;;;;;;3.65;1.88;;;13.50;74.10;;;;;;4946090;28;92529;-92
2021/11/05 09:58:38;;;;;;;3.97;1.55;;;13.60;73.90;;;;;;4978196;28;94825;-93
2021/11/05 10:01:07;;;;;;;9.18;2.72;;;13.70;73.80;;;;;;4978414;28;95278;-93
2021/11/05 10:03:35;;;;;;;7.63;1.90;;;13.70;73.70;;;;;;4977577;28;92164;-92
2021/11/05 10:06:07;;;;;;;3.65;1.25;;;13.80;73.70;;;;;;4977438;28;92465;-93
2021/11/05 10:08:36;;;;;;;4.80;1.40;;;13.80;73.40;;;;;;4978931;28;94983;-93
2021/11/05 10:11:41;;;;;;;3.05;1.23;;;13.90;73.40;;;;;;4978225;28;92997;-93
2021/11/05 10:14:18;;;;;;;4.65;1.30;;;13.80;73.00;;;;;;4922432;28;92382;-93
2021/11/05 10:16:59;;;;;;;5.60;1.58;;;13.80;72.90;;;;;;4921974;28;92385;-93
2021/11/05 10:19:55;;;;;;;4.60;1.20;;;13.70;73.20;;;;;;4955352;28;97841;-93
2021/11/05 10:22:53;;;;;;;4.50;1.23;;;13.70;73.10;;;;;;4961037;28;98086;-94
2021/11/05 10:25:23;;;;;;;3.05;1.00;;;13.70;73.00;;;;;;4978531;28;92231;-92
2021/11/05 10:28:57;;;;;;;1.92;1.13;;;13.70;72.90;;;;;;4975562;28;92505;-93
2021/11/05 10:52:15;;;;;;;4.35;0.95;;;13.90;70.90;;;;;;4976209;28;92632;-92
2021/11/05 10:54:52;;;;;;;2.00;0.75;;;14.10;70.00;;;;;;4977411;28;95313;-92
2021/11/05 10:57:48;;;;;;;4.25;1.20;;;14.20;69.20;;;;;;4976265;28;94956;-92
2021/11/05 11:00:30;;;;;;;1.45;1.00;;;14.30;68.50;;;;;;4975427;28;92519;-92
2021/11/05 11:03:42;;;;;;;2.13;1.00;;;14.40;67.20;;;;;;4960851;28;94999;-93
2021/11/05 11:06:11;;;;;;;2.55;0.80;;;14.50;67.70;;;;;;4993538;28;95135;-92
2021/11/05 11:08:43;;;;;;;5.03;1.17;;;14.70;66.90;;;;;;4976807;28;92348;-93
2021/11/05 11:11:34;;;;;;;2.15;0.70;;;14.90;66.30;;;;;;4977785;28;92450;-92
2021/11/05 11:14:17;;;;;;;3.08;1.05;;;15.00;64.40;;;;;;4960422;28;96511;-92
2021/11/05 11:16:55;;;;;;;1.87;0.80;;;15.20;64.50;;;;;;4961248;28;95370;-92
2021/11/05 11:19:30;;;;;;;1.05;0.60;;;15.30;64.10;;;;;;4964014;28;92235;-92
2021/11/05 11:22:01;;;;;;;1.60;0.60;;;15.50;64.00;;;;;;4964679;28;92382;-92
2021/11/05 11:24:35;;;;;;;1.25;0.90;;;15.60;63.90;;;;;;4962515;28;97803;-92
2021/11/05 11:27:05;;;;;;;3.72;1.08;;;15.70;62.30;;;;;;4963943;28;98017;-92
2021/11/05 11:29:51;;;;;;;4.50;1.10;;;15.90;62.00;;;;;;4967178;28;92307;-92
2021/11/05 11:32:19;;;;;;;1.92;0.90;;;16.00;61.30;;;;;;4963824;28;100125;-92
2021/11/05 11:34:47;;;;;;;1.88;0.90;;;16.00;61.10;;;;;;4980493;28;92399;-91
2021/11/05 11:37:15;;;;;;;1.10;0.80;;;16.00;61.20;;;;;;4980221;28;95835;-93
2021/11/05 11:39:42;;;;;;;2.72;1.10;;;16.00;58.60;;;;;;4980048;28;92324;-92
2021/11/05 11:42:10;;;;;;;4.97;0.98;;;16.00;60.30;;;;;;4962932;28;91783;-92
2021/11/05 11:44:37;;;;;;;1.05;0.90;;;16.10;60.80;;;;;;4963073;28;96379;-92
2021/11/05 11:47:13;;;;;;;1.40;0.70;;;16.10;60.60;;;;;;4963281;28;94737;-93
2021/11/05 11:49:40;;;;;;;3.53;0.88;;;16.10;60.60;;;;;;4962912;28;94723;-92
2021/11/05 11:52:18;;;;;;;2.85;1.00;;;16.00;60.50;;;;;;4979654;28;92443;-93
2021/11/05 11:54:55;;;;;;;0.75;0.70;;;16.00;60.70;;;;;;4980901;28;95826;-93
2021/11/05 11:57:24;;;;;;;3.70;0.77;;;16.00;61.10;;;;;;4979838;28;95559;-93
2021/11/05 12:00:10;;;;;;;1.70;0.70;;;15.80;60.90;;;;;;4996407;28;92204;-93
2021/11/05 12:02:49;;;;;;;4.82;1.30;;;15.70;61.50;;;;;;4980608;28;92366;-93
2021/11/05 12:05:23;;;;;;;4.13;0.93;;;15.20;61.40;;;;;;4983252;28;94610;-95
2021/11/05 12:08:20;;;;;;;1.88;0.70;;;15.00;63.10;;;;;;4981518;28;93271;-95
2021/11/05 12:11:13;;;;;;;4.13;0.88;;;15.10;64.00;;;;;;4981009;28;92314;-95
2021/11/05 12:13:43;;;;;;;1.80;0.77;;;15.20;64.70;;;;;;4981240;28;92412;-95
2021/11/05 12:16:16;;;;;;;2.28;1.02;;;15.20;64.50;;;;;;4979895;28;98416;-95
2021/11/05 12:19:03;;;;;;;3.87;2.27;;;15.10;64.30;;;;;;4979885;28;96978;-95
2021/11/05 12:21:42;;;;;;;2.65;0.80;;;15.20;64.60;;;;;;4997524;28;92161;-95
2021/11/05 12:24:30;;;;;;;2.70;0.90;;;15.40;64.90;;;;;;4965209;28;92397;-94
2021/11/05 12:27:07;;;;;;;3.00;1.10;;;15.40;64.20;;;;;;4964278;28;95957;-95
2021/11/05 12:29:34;;;;;;;2.85;0.90;;;15.30;63.90;;;;;;4980279;28;95346;-95
2021/11/05 12:32:20;;;;;;;3.27;1.00;;;15.10;64.40;;;;;;4965728;28;92246;-96
2021/11/05 12:35:05;;;;;;;2.47;0.70;;;15.00;65.30;;;;;;4981840;28;91686;-95
2021/11/05 12:37:52;;;;;;;1.27;0.80;;;14.70;66.00;;;;;;4981784;28;96121;-94
2021/11/05 12:40:44;;;;;;;5.00;0.80;;;14.70;67.10;;;;;;4981583;28;95498;-94
2021/11/05 12:43:13;;;;;;;1.73;1.20;;;14.70;67.90;;;;;;4979452;28;94602;-95
2021/11/05 12:45:55;;;;;;;1.88;0.95;;;14.70;68.30;;;;;;4980138;28;92574;-95
2021/11/05 12:48:36;;;;;;;4.00;0.88;;;14.70;68.50;;;;;;4981366;28;93627;-93
2021/11/05 12:51:09;;;;;;;2.05;0.80;;;14.80;68.70;;;;;;4979869;28;95502;-94
2021/11/05 12:53:42;;;;;;;3.05;0.80;;;14.70;68.70;;;;;;4980528;28;92323;-94
2021/11/05 12:56:17;;;;;;;2.17;0.60;;;14.70;69.00;;;;;;4979871;28;92403;-94
2021/11/05 12:58:44;;;;;;;2.60;0.70;;;14.40;69.60;;;;;;4979864;28;95855;-94
2021/11/05 13:01:16;;;;;;;3.05;1.35;;;14.30;71.00;;;;;;4964042;28;95613;-95
2021/11/05 13:03:43;;;;;;;1.70;0.90;;;14.20;71.40;;;;;;4980560;28;92289;-95
2021/11/05 13:06:14;;;;;;;1.92;0.90;;;14.10;71.70;;;;;;4964942;28;92903;-94
2021/11/05 13:08:42;;;;;;;1.88;0.88;;;14.00;72.20;;;;;;4964664;28;98631;-95
2021/11/05 13:11:12;;;;;;;3.38;0.90;;;14.00;72.30;;;;;;4980558;28;98223;-95
2021/11/05 13:13:53;;;;;;;;;;;14.00;72.10;;;;;;4980955;28;92218;-93
2021/11/05 13:16:22;;;;;;;1.45;0.95;;;14.10;72.00;;;;;;4982755;28;92370;-95
2021/11/05 13:18:50;;;;;;;5.32;0.93;;;14.20;71.70;;;;;;4979939;28;95460;-95
2021/11/05 13:21:24;;;;;;;5.50;1.50;;;14.20;71.40;;;;;;4979716;28;94746;-94
2021/11/05 13:23:52;;;;;;;4.75;1.20;;;14.30;71.70;;;;;;4978730;28;92134;-93
2021/11/05 13:26:32;;;;;;;2.47;0.88;;;14.10;71.90;;;;;;4981192;28;91470;-93
2021/11/05 13:28:59;;;;;;;3.88;1.40;;;14.20;72.10;;;;;;4964164;28;94732;-96
2021/11/05 13:31:26;;;;;;;5.05;1.20;;;14.20;71.80;;;;;;4979517;28;94356;-95
2021/11/05 13:33:55;;;;;;;4.57;1.00;;;14.30;71.90;;;;;;4978460;28;94568;-93
2021/11/05 13:36:23;;;;;;;4.93;0.85;;;14.40;71.60;;;;;;4948149;28;92601;-93
2021/11/05 13:38:52;;;;;;;5.28;1.23;;;14.40;71.30;;;;;;4978664;28;95993;-94
2021/11/05 13:41:22;;;;;;;3.58;1.05;;;14.40;71.40;;;;;;4962792;28;94621;-94
2021/11/05 13:43:52;;;;;;;5.05;1.42;;;14.40;70.80;;;;;;4963357;28;92337;-96
2021/11/05 13:46:25;;;;;;;6.40;1.58;;;14.50;71.30;;;;;;4979824;28;92366;-95
2021/11/05 13:48:56;;;;;;;4.80;1.05;;;14.50;71.20;;;;;;4978741;28;95831;-95
2021/11/05 13:51:24;;;;;;;4.15;1.35;;;14.60;71.10;;;;;;4979801;28;95781;-95
2021/11/05 13:53:58;;;;;;;6.07;1.25;;;14.70;71.00;;;;;;4962683;28;92190;-94
2021/11/05 13:56:25;;;;;;;5.03;1.35;;;14.80;70.60;;;;;;4979940;28;92381;-95
2021/11/05 13:58:58;;;;;;;6.65;2.08;;;14.90;70.20;;;;;;4962685;28;98313;-95
2021/11/05 14:01:27;;;;;;;5.77;1.40;;;15.10;69.80;;;;;;4978743;28;96720;-94
2021/11/05 14:03:59;;;;;;;4.75;1.08;;;15.10;69.60;;;;;;4979093;28;92184;-95
2021/11/05 14:06:27;;;;;;;4.82;1.35;;;15.20;69.20;;;;;;4962961;28;92471;-94